sensor_id;sensor_type;location;lat;lon;timestamp;pressure;altitude;pressure_sealevel;temperature;humidity
71938;BME280;59810;48.800;9.086;2023-02-11T00:01:39;99637.47;;;-2.13;80.57
71938;BME280;59810;48.800;9.086;2023-02-11T00:04:06;99639.03;;;-2.22;80.68
71938;BME280;59810;48.800;9.086;2023-02-11T00:06:33;99636.63;;;-2.25;81.54
71938;BME280;59810;48.800;9.086;2023-02-11T00:08:59;99629.28;;;-2.21;81.28
71938;BME280;59810;48.800;9.086;2023-02-11T00:11:26;99633.03;;;-2.24;81.50
71938;BME280;59810;48.800;9.086;2023-02-11T00:14:05;99631.44;;;-2.26;81.90
71938;BME280;59810;48.800;9.086;2023-02-11T00:16:32;99627.97;;;-2.27;81.92
71938;BME280;59810;48.800;9.086;2023-02-11T00:19:01;99627.97;;;-2.27;81.91
71938;BME280;59810;48.800;9.086;2023-02-11T00:21:26;99633.13;;;-2.25;82.20
71938;BME280;59810;48.800;9.086;2023-02-11T00:23:52;99640.44;;;-2.29;81.99
71938;BME280;59810;48.800;9.086;2023-02-11T00:26:28;99631.66;;;-2.29;81.99
71938;BME280;59810;48.800;9.086;2023-02-11T00:28:53;99621.31;;;-2.32;82.46
71938;BME280;59810;48.800;9.086;2023-02-11T00:31:20;99615.44;;;-2.36;82.15
71938;BME280;59810;48.800;9.086;2023-02-11T00:33:46;99613.50;;;-2.34;82.55
71938;BME280;59810;48.800;9.086;2023-02-11T00:36:18;99613.16;;;-2.29;82.84
71938;BME280;59810;48.800;9.086;2023-02-11T00:38:46;99605.34;;;-2.31;82.83
71938;BME280;59810;48.800;9.086;2023-02-11T00:41:13;99602.00;;;-2.22;82.40
71938;BME280;59810;48.800;9.086;2023-02-11T00:43:41;99607.03;;;-2.18;82.45
71938;BME280;59810;48.800;9.086;2023-02-11T00:46:07;99611.38;;;-2.17;82.57
71938;BME280;59810;48.800;9.086;2023-02-11T00:48:33;99616.16;;;-2.11;82.32
71938;BME280;59810;48.800;9.086;2023-02-11T00:50:58;99613.91;;;-2.16;82.63
71938;BME280;59810;48.800;9.086;2023-02-11T00:53:24;99614.84;;;-2.17;82.26
71938;BME280;59810;48.800;9.086;2023-02-11T00:55:49;99613.53;;;-2.11;81.85
71938;BME280;59810;48.800;9.086;2023-02-11T00:58:18;99620.97;;;-2.05;81.28
71938;BME280;59810;48.800;9.086;2023-02-11T01:00:43;99619.53;;;-2.09;81.45
71938;BME280;59810;48.800;9.086;2023-02-11T01:03:08;99616.16;;;-2.11;81.22
71938;BME280;59810;48.800;9.086;2023-02-11T01:05:36;99616.28;;;-2.13;81.24
71938;BME280;59810;48.800;9.086;2023-02-11T01:08:07;99611.84;;;-2.12;81.60
71938;BME280;59810;48.800;9.086;2023-02-11T01:10:35;99603.91;;;-2.12;81.82
71938;BME280;59810;48.800;9.086;2023-02-11T01:13:00;99594.16;;;-2.12;81.33
71938;BME280;59810;48.800;9.086;2023-02-11T01:15:26;99589.97;;;-2.14;82.02
71938;BME280;59810;48.800;9.086;2023-02-11T01:17:52;99590.09;;;-2.16;82.57
71938;BME280;59810;48.800;9.086;2023-02-11T01:20:23;99583.22;;;-2.18;82.14
71938;BME280;59810;48.800;9.086;2023-02-11T01:22:49;99583.34;;;-2.20;82.39
71938;BME280;59810;48.800;9.086;2023-02-11T01:25:16;99577.34;;;-2.22;82.91
71938;BME280;59810;48.800;9.086;2023-02-11T01:27:42;99575.06;;;-2.27;82.80
71938;BME280;59810;48.800;9.086;2023-02-11T01:30:11;99563.00;;;-2.31;83.12
71938;BME280;59810;48.800;9.086;2023-02-11T01:32:38;99562.16;;;-2.31;83.73
71938;BME280;59810;48.800;9.086;2023-02-11T01:35:04;99562.53;;;-2.36;82.45
71938;BME280;59810;48.800;9.086;2023-02-11T01:37:32;99562.78;;;-2.39;82.47
71938;BME280;59810;48.800;9.086;2023-02-11T01:39:58;99571.44;;;-2.48;83.19
71938;BME280;59810;48.800;9.086;2023-02-11T01:42:25;99569.75;;;-2.49;83.76
71938;BME280;59810;48.800;9.086;2023-02-11T01:44:53;99569.03;;;-2.51;83.56
71938;BME280;59810;48.800;9.086;2023-02-11T01:47:20;99569.16;;;-2.53;83.55
71938;BME280;59810;48.800;9.086;2023-02-11T01:49:56;99567.47;;;-2.54;83.38
71938;BME280;59810;48.800;9.086;2023-02-11T01:52:30;99564.72;;;-2.52;84.08
71938;BME280;59810;48.800;9.086;2023-02-11T01:55:02;99563.03;;;-2.53;83.73
71938;BME280;59810;48.800;9.086;2023-02-11T01:57:51;99566.88;;;-2.57;82.80
71938;BME280;59810;48.800;9.086;2023-02-11T02:00:35;99565.69;;;-2.53;83.78
71938;BME280;59810;48.800;9.086;2023-02-11T02:03:07;99565.91;;;-2.56;83.99
71938;BME280;59810;48.800;9.086;2023-02-11T02:10:53;99549.56;;;-2.50;84.33
71938;BME280;59810;48.800;9.086;2023-02-11T02:13:21;99547.88;;;-2.51;83.71
71938;BME280;59810;48.800;9.086;2023-02-11T02:15:58;99554.63;;;-2.58;84.25
71938;BME280;59810;48.800;9.086;2023-02-11T02:27:07;99544.53;;;-2.53;83.56
71938;BME280;59810;48.800;9.086;2023-02-11T02:35:09;99544.03;;;-2.58;83.34
71938;BME280;59810;48.800;9.086;2023-02-11T02:40:34;99539.59;;;-2.58;83.69
71938;BME280;59810;48.800;9.086;2023-02-11T02:43:01;99535.59;;;-2.63;83.70
71938;BME280;59810;48.800;9.086;2023-02-11T02:45:27;99537.41;;;-2.64;83.66
71938;BME280;59810;48.800;9.086;2023-02-11T02:47:55;99531.78;;;-2.59;83.84
71938;BME280;59810;48.800;9.086;2023-02-11T02:50:27;99529.97;;;-2.59;83.95
71938;BME280;59810;48.800;9.086;2023-02-11T02:58:40;99516.88;;;-2.49;83.59
71938;BME280;59810;48.800;9.086;2023-02-11T03:10:16;99509.06;;;-2.51;83.31
71938;BME280;59810;48.800;9.086;2023-02-11T03:12:44;99507.13;;;-2.48;83.90
71938;BME280;59810;48.800;9.086;2023-02-11T03:15:11;99501.00;;;-2.49;84.46
71938;BME280;59810;48.800;9.086;2023-02-11T03:17:42;99502.81;;;-2.49;83.58
71938;BME280;59810;48.800;9.086;2023-02-11T03:20:12;99494.88;;;-2.49;83.17
71938;BME280;59810;48.800;9.086;2023-02-11T03:22:44;99486.22;;;-2.52;83.50
71938;BME280;59810;48.800;9.086;2023-02-11T03:25:10;99485.03;;;-2.47;83.87
71938;BME280;59810;48.800;9.086;2023-02-11T03:31:04;99486.81;;;-2.48;84.19
71938;BME280;59810;48.800;9.086;2023-02-11T03:33:28;99480.59;;;-2.58;83.29
71938;BME280;59810;48.800;9.086;2023-02-11T03:36:08;99479.13;;;-2.51;84.17
71938;BME280;59810;48.800;9.086;2023-02-11T03:38:44;99484.66;;;-2.54;85.00
71938;BME280;59810;48.800;9.086;2023-02-11T03:41:12;99488.75;;;-2.61;85.18
71938;BME280;59810;48.800;9.086;2023-02-11T03:43:47;99491.53;;;-2.52;85.07
71938;BME280;59810;48.800;9.086;2023-02-11T03:46:17;99486.09;;;-2.50;84.26
71938;BME280;59810;48.800;9.086;2023-02-11T03:48:47;99492.94;;;-2.47;85.02
71938;BME280;59810;48.800;9.086;2023-02-11T03:51:14;99500.16;;;-2.49;84.78
71938;BME280;59810;48.800;9.086;2023-02-11T03:53:42;99488.63;;;-2.48;84.62
71938;BME280;59810;48.800;9.086;2023-02-11T03:56:13;99493.78;;;-2.47;84.80
71938;BME280;59810;48.800;9.086;2023-02-11T03:58:39;99485.84;;;-2.36;85.22
71938;BME280;59810;48.800;9.086;2023-02-11T04:01:05;99479.34;;;-2.32;84.81
71938;BME280;59810;48.800;9.086;2023-02-11T04:03:32;99480.56;;;-2.25;85.11
71938;BME280;59810;48.800;9.086;2023-02-11T04:05:58;99480.25;;;-2.10;85.08
71938;BME280;59810;48.800;9.086;2023-02-11T04:08:23;99491.81;;;-2.11;84.11
71938;BME280;59810;48.800;9.086;2023-02-11T04:10:48;99502.94;;;-1.97;84.39
71938;BME280;59810;48.800;9.086;2023-02-11T04:13:14;99508.63;;;-1.90;83.74
71938;BME280;59810;48.800;9.086;2023-02-11T04:15:39;99501.25;;;-1.86;82.87
71938;BME280;59810;48.800;9.086;2023-02-11T04:18:04;99513.03;;;-1.79;82.82
71938;BME280;59810;48.800;9.086;2023-02-11T04:20:32;99519.88;;;-1.77;83.39
71938;BME280;59810;48.800;9.086;2023-02-11T04:22:57;99519.38;;;-1.71;82.86
71938;BME280;59810;48.800;9.086;2023-02-11T04:25:23;99509.03;;;-1.74;81.96
71938;BME280;59810;48.800;9.086;2023-02-11T04:27:49;99513.47;;;-1.74;82.24
71938;BME280;59810;48.800;9.086;2023-02-11T04:30:15;99520.78;;;-1.67;81.99
71938;BME280;59810;48.800;9.086;2023-02-11T04:32:40;99518.03;;;-1.65;83.02
71938;BME280;59810;48.800;9.086;2023-02-11T04:35:06;99510.06;;;-1.65;84.49
71938;BME280;59810;48.800;9.086;2023-02-11T04:37:31;99505.50;;;-1.63;82.76
71938;BME280;59810;48.800;9.086;2023-02-11T04:39:56;99498.16;;;-1.60;83.22
71938;BME280;59810;48.800;9.086;2023-02-11T04:42:22;99504.75;;;-1.54;83.42
71938;BME280;59810;48.800;9.086;2023-02-11T04:44:48;99498.09;;;-1.48;83.05
71938;BME280;59810;48.800;9.086;2023-02-11T04:47:13;99502.56;;;-1.49;82.39
71938;BME280;59810;48.800;9.086;2023-02-11T04:49:39;99509.41;;;-1.46;83.02
71938;BME280;59810;48.800;9.086;2023-02-11T04:52:05;99503.41;;;-1.48;83.40
71938;BME280;59810;48.800;9.086;2023-02-11T04:54:30;99494.22;;;-1.44;83.55
71938;BME280;59810;48.800;9.086;2023-02-11T04:56:56;99493.56;;;-1.37;83.12
71938;BME280;59810;48.800;9.086;2023-02-11T04:59:21;99494.88;;;-1.31;83.02
71938;BME280;59810;48.800;9.086;2023-02-11T05:01:46;99497.78;;;-1.34;83.31
71938;BME280;59810;48.800;9.086;2023-02-11T05:04:12;99490.53;;;-1.32;83.38
71938;BME280;59810;48.800;9.086;2023-02-11T05:06:38;99487.41;;;-1.26;83.14
71938;BME280;59810;48.800;9.086;2023-02-11T05:09:04;99497.03;;;-1.25;83.27
71938;BME280;59810;48.800;9.086;2023-02-11T05:11:29;99494.63;;;-1.28;82.74
71938;BME280;59810;48.800;9.086;2023-02-11T05:13:54;99474.88;;;-1.24;83.53
71938;BME280;59810;48.800;9.086;2023-02-11T05:16:20;99470.13;;;-1.20;83.97
71938;BME280;59810;48.800;9.086;2023-02-11T05:18:45;99462.50;;;-1.14;83.41
71938;BME280;59810;48.800;9.086;2023-02-11T05:21:14;99448.16;;;-1.11;83.50
71938;BME280;59810;48.800;9.086;2023-02-11T05:23:40;99439.81;;;-1.07;84.15
71938;BME280;59810;48.800;9.086;2023-02-11T05:26:06;99430.75;;;-1.04;82.91
71938;BME280;59810;48.800;9.086;2023-02-11T05:28:32;99428.94;;;-1.04;83.30
71938;BME280;59810;48.800;9.086;2023-02-11T05:30:57;99441.22;;;-1.03;83.35
71938;BME280;59810;48.800;9.086;2023-02-11T05:33:23;99439.28;;;-1.01;83.36
71938;BME280;59810;48.800;9.086;2023-02-11T05:35:48;99434.94;;;-1.02;83.61
71938;BME280;59810;48.800;9.086;2023-02-11T05:38:14;99424.06;;;-0.99;83.81
71938;BME280;59810;48.800;9.086;2023-02-11T05:40:39;99419.59;;;-0.98;84.25
71938;BME280;59810;48.800;9.086;2023-02-11T05:43:05;99422.84;;;-0.95;83.55
71938;BME280;59810;48.800;9.086;2023-02-11T05:45:30;99428.44;;;-0.98;84.07
71938;BME280;59810;48.800;9.086;2023-02-11T05:47:56;99435.00;;;-0.92;84.11
71938;BME280;59810;48.800;9.086;2023-02-11T05:50:22;99432.09;;;-0.89;84.63
71938;BME280;59810;48.800;9.086;2023-02-11T05:52:47;99434.16;;;-0.92;84.85
71938;BME280;59810;48.800;9.086;2023-02-11T05:55:15;99436.56;;;-0.89;84.73
71938;BME280;59810;48.800;9.086;2023-02-11T05:57:40;99431.25;;;-0.89;84.02
71938;BME280;59810;48.800;9.086;2023-02-11T06:00:06;99433.38;;;-0.83;84.62
71938;BME280;59810;48.800;9.086;2023-02-11T06:02:32;99441.06;;;-0.80;84.25
71938;BME280;59810;48.800;9.086;2023-02-11T06:04:58;99438.84;;;-0.75;84.61
71938;BME280;59810;48.800;9.086;2023-02-11T06:07:23;99448.06;;;-0.70;84.06
71938;BME280;59810;48.800;9.086;2023-02-11T06:09:48;99447.75;;;-0.76;82.89
71938;BME280;59810;48.800;9.086;2023-02-11T06:12:14;99458.63;;;-0.79;83.07
71938;BME280;59810;48.800;9.086;2023-02-11T06:14:39;99465.88;;;-0.81;83.37
71938;BME280;59810;48.800;9.086;2023-02-11T06:17:04;99468.94;;;-0.86;84.23
71938;BME280;59810;48.800;9.086;2023-02-11T06:19:30;99482.91;;;-0.84;85.03
71938;BME280;59810;48.800;9.086;2023-02-11T06:21:56;99487.38;;;-0.84;84.91
71938;BME280;59810;48.800;9.086;2023-02-11T06:24:21;99471.19;;;-0.81;84.58
71938;BME280;59810;48.800;9.086;2023-02-11T06:26:50;99476.22;;;-0.78;84.93
71938;BME280;59810;48.800;9.086;2023-02-11T06:29:15;99465.09;;;-0.72;84.32
71938;BME280;59810;48.800;9.086;2023-02-11T06:31:41;99468.16;;;-0.67;84.11
71938;BME280;59810;48.800;9.086;2023-02-11T06:34:07;99464.44;;;-0.65;83.64
71938;BME280;59810;48.800;9.086;2023-02-11T06:36:34;99456.72;;;-0.68;83.79
71938;BME280;59810;48.800;9.086;2023-02-11T06:38:59;99452.00;;;-0.64;83.86
71938;BME280;59810;48.800;9.086;2023-02-11T06:41:25;99448.41;;;-0.63;83.75
71938;BME280;59810;48.800;9.086;2023-02-11T06:43:53;99459.97;;;-0.64;83.62
71938;BME280;59810;48.800;9.086;2023-02-11T06:46:18;99463.13;;;-0.70;83.34
71938;BME280;59810;48.800;9.086;2023-02-11T06:48:44;99472.63;;;-0.68;84.20
71938;BME280;59810;48.800;9.086;2023-02-11T06:51:11;99480.22;;;-0.63;84.98
71938;BME280;59810;48.800;9.086;2023-02-11T06:53:39;99472.84;;;-0.59;84.52
71938;BME280;59810;48.800;9.086;2023-02-11T06:56:07;99471.59;;;-0.55;84.04
71938;BME280;59810;48.800;9.086;2023-02-11T06:58:33;99472.16;;;-0.52;83.94
71938;BME280;59810;48.800;9.086;2023-02-11T07:00:58;99480.28;;;-0.44;83.20
71938;BME280;59810;48.800;9.086;2023-02-11T07:03:24;99480.28;;;-0.44;83.76
71938;BME280;59810;48.800;9.086;2023-02-11T07:05:49;99478.59;;;-0.45;83.74
71938;BME280;59810;48.800;9.086;2023-02-11T07:08:15;99474.56;;;-0.39;83.82
71938;BME280;59810;48.800;9.086;2023-02-11T07:10:40;99467.16;;;-0.36;83.33
71938;BME280;59810;48.800;9.086;2023-02-11T07:13:06;99474.16;;;-0.35;84.35
71938;BME280;59810;48.800;9.086;2023-02-11T07:15:31;99472.94;;;-0.30;83.70
71938;BME280;59810;48.800;9.086;2023-02-11T07:17:59;99468.59;;;-0.32;83.87
71938;BME280;59810;48.800;9.086;2023-02-11T07:20:24;99473.09;;;-0.22;82.39
71938;BME280;59810;48.800;9.086;2023-02-11T07:22:50;99466.38;;;-0.17;82.15
71938;BME280;59810;48.800;9.086;2023-02-11T07:25:15;99470.31;;;-0.11;83.38
71938;BME280;59810;48.800;9.086;2023-02-11T07:27:41;99466.53;;;-0.09;82.34
71938;BME280;59810;48.800;9.086;2023-02-11T07:30:06;99463.75;;;-0.07;82.22
71938;BME280;59810;48.800;9.086;2023-02-11T07:32:32;99469.75;;;-0.05;82.59
71938;BME280;59810;48.800;9.086;2023-02-11T07:34:57;99481.66;;;0.01;82.52
71938;BME280;59810;48.800;9.086;2023-02-11T07:37:22;99501.94;;;0.02;81.70
71938;BME280;59810;48.800;9.086;2023-02-11T07:39:48;99496.06;;;0.08;82.00
71938;BME280;59810;48.800;9.086;2023-02-11T07:42:15;99491.03;;;0.14;81.86
71938;BME280;59810;48.800;9.086;2023-02-11T07:44:40;99506.41;;;0.20;82.85
71938;BME280;59810;48.800;9.086;2023-02-11T07:47:06;99500.81;;;0.23;81.15
71938;BME280;59810;48.800;9.086;2023-02-11T07:49:31;99505.03;;;0.26;80.70
71938;BME280;59810;48.800;9.086;2023-02-11T07:51:56;99493.97;;;0.30;80.99
71938;BME280;59810;48.800;9.086;2023-02-11T07:54:21;99485.63;;;0.35;80.45
71938;BME280;59810;48.800;9.086;2023-02-11T07:56:49;99484.06;;;0.42;81.27
71938;BME280;59810;48.800;9.086;2023-02-11T07:59:17;99479.03;;;0.49;80.61
71938;BME280;59810;48.800;9.086;2023-02-11T08:01:45;99469.22;;;0.59;79.15
71938;BME280;59810;48.800;9.086;2023-02-11T08:04:12;99472.31;;;0.64;78.83
71938;BME280;59810;48.800;9.086;2023-02-11T08:06:40;99467.56;;;0.68;79.37
71938;BME280;59810;48.800;9.086;2023-02-11T08:09:13;99460.16;;;0.71;80.26
71938;BME280;59810;48.800;9.086;2023-02-11T08:11:40;99456.91;;;0.77;80.69
71938;BME280;59810;48.800;9.086;2023-02-11T08:14:05;99454.66;;;0.82;80.88
71938;BME280;59810;48.800;9.086;2023-02-11T08:16:32;99449.06;;;0.85;79.70
71938;BME280;59810;48.800;9.086;2023-02-11T08:19:01;99460.94;;;0.91;80.15
71938;BME280;59810;48.800;9.086;2023-02-11T08:21:27;99466.53;;;0.98;77.67
71938;BME280;59810;48.800;9.086;2023-02-11T08:23:53;99458.28;;;1.01;77.46
71938;BME280;59810;48.800;9.086;2023-02-11T08:26:23;99459.38;;;1.08;78.14
71938;BME280;59810;48.800;9.086;2023-02-11T08:28:51;99470.25;;;1.14;78.01
71938;BME280;59810;48.800;9.086;2023-02-11T08:31:23;99467.69;;;1.22;78.99
71938;BME280;59810;48.800;9.086;2023-02-11T08:33:49;99474.69;;;1.23;79.39
71938;BME280;59810;48.800;9.086;2023-02-11T08:36:21;99473.44;;;1.28;79.32
71938;BME280;59810;48.800;9.086;2023-02-11T08:38:47;99474.41;;;1.27;79.68
71938;BME280;59810;48.800;9.086;2023-02-11T08:41:15;99470.81;;;1.18;79.61
71938;BME280;59810;48.800;9.086;2023-02-11T08:43:42;99466.72;;;1.23;80.17
71938;BME280;59810;48.800;9.086;2023-02-11T08:46:10;99462.38;;;1.32;79.19
71938;BME280;59810;48.800;9.086;2023-02-11T08:48:36;99458.28;;;1.38;79.84
71938;BME280;59810;48.800;9.086;2023-02-11T08:51:08;99457.00;;;1.42;79.15
71938;BME280;59810;48.800;9.086;2023-02-11T08:53:36;99464.94;;;1.51;78.69
71938;BME280;59810;48.800;9.086;2023-02-11T08:56:02;99457.19;;;1.58;78.69
71938;BME280;59810;48.800;9.086;2023-02-11T08:58:27;99453.81;;;1.66;78.23
71938;BME280;59810;48.800;9.086;2023-02-11T09:00:53;99459.09;;;1.75;78.26
71938;BME280;59810;48.800;9.086;2023-02-11T09:03:18;99457.88;;;1.87;77.82
71938;BME280;59810;48.800;9.086;2023-02-11T09:05:46;99467.75;;;2.05;82.49
71938;BME280;59810;48.800;9.086;2023-02-11T09:08:12;99461.53;;;2.32;77.66
71938;BME280;59810;48.800;9.086;2023-02-11T09:10:41;99466.84;;;2.67;74.08
71938;BME280;59810;48.800;9.086;2023-02-11T09:13:07;99465.31;;;2.91;73.17
71938;BME280;59810;48.800;9.086;2023-02-11T09:15:33;99456.09;;;3.03;72.61
71938;BME280;59810;48.800;9.086;2023-02-11T09:17:59;99455.81;;;3.14;72.18
71938;BME280;59810;48.800;9.086;2023-02-11T09:20:27;99466.25;;;3.25;71.31
71938;BME280;59810;48.800;9.086;2023-02-11T09:22:56;99462.78;;;3.33;71.74
71938;BME280;59810;48.800;9.086;2023-02-11T09:25:26;99454.69;;;3.51;70.21
71938;BME280;59810;48.800;9.086;2023-02-11T09:27:51;99447.06;;;3.64;69.70
71938;BME280;59810;48.800;9.086;2023-02-11T09:30:18;99448.13;;;3.79;69.11
71938;BME280;59810;48.800;9.086;2023-02-11T09:32:43;99450.16;;;3.85;68.70
71938;BME280;59810;48.800;9.086;2023-02-11T09:35:09;99451.66;;;3.88;68.77
71938;BME280;59810;48.800;9.086;2023-02-11T09:37:39;99448.97;;;3.88;68.83
71938;BME280;59810;48.800;9.086;2023-02-11T09:40:05;99444.63;;;3.87;68.63
71938;BME280;59810;48.800;9.086;2023-02-11T09:45:23;99450.56;;;4.06;67.83
71938;BME280;59810;48.800;9.086;2023-02-11T09:48:02;99453.59;;;4.28;67.14
71938;BME280;59810;48.800;9.086;2023-02-11T09:50:34;99449.94;;;4.29;67.49
71938;BME280;59810;48.800;9.086;2023-02-11T09:53:12;99458.97;;;4.44;66.94
71938;BME280;59810;48.800;9.086;2023-02-11T09:55:42;99459.66;;;4.62;65.63
71938;BME280;59810;48.800;9.086;2023-02-11T09:58:24;99466.69;;;4.63;65.72
71938;BME280;59810;48.800;9.086;2023-02-11T10:09:51;99477.53;;;4.70;64.72
71938;BME280;59810;48.800;9.086;2023-02-11T10:20:30;99476.44;;;5.44;64.03
71938;BME280;59810;48.800;9.086;2023-02-11T10:22:59;99485.47;;;5.51;63.20
71938;BME280;59810;48.800;9.086;2023-02-11T10:25:43;99487.13;;;5.60;61.27
71938;BME280;59810;48.800;9.086;2023-02-11T10:28:16;99488.81;;;5.61;61.18
71938;BME280;59810;48.800;9.086;2023-02-11T10:31:03;99492.50;;;5.60;62.61
71938;BME280;59810;48.800;9.086;2023-02-11T10:36:05;99491.63;;;5.68;62.33
71938;BME280;59810;48.800;9.086;2023-02-11T10:38:31;99490.78;;;5.68;62.44
71938;BME280;59810;48.800;9.086;2023-02-11T10:40:58;99492.28;;;5.70;61.90
71938;BME280;59810;48.800;9.086;2023-02-11T10:43:26;99482.75;;;5.68;62.00
71938;BME280;59810;48.800;9.086;2023-02-11T10:45:54;99485.13;;;5.62;62.61
71938;BME280;59810;48.800;9.086;2023-02-11T10:51:16;99470.84;;;5.70;62.05
71938;BME280;59810;48.800;9.086;2023-02-11T10:53:43;99455.59;;;5.71;61.99
71938;BME280;59810;48.800;9.086;2023-02-11T10:56:21;99457.59;;;5.77;62.10
71938;BME280;59810;48.800;9.086;2023-02-11T10:58:57;99448.00;;;5.82;62.50
71938;BME280;59810;48.800;9.086;2023-02-11T11:01:40;99450.00;;;5.88;61.76
71938;BME280;59810;48.800;9.086;2023-02-11T11:06:52;99439.22;;;6.05;61.27
71938;BME280;59810;48.800;9.086;2023-02-11T11:09:28;99435.47;;;6.14;61.23
71938;BME280;59810;48.800;9.086;2023-02-11T11:11:57;99428.88;;;6.24;60.63
71938;BME280;59810;48.800;9.086;2023-02-11T11:14:23;99430.31;;;6.35;59.92
71938;BME280;59810;48.800;9.086;2023-02-11T11:16:53;99427.28;;;6.38;59.64
71938;BME280;59810;48.800;9.086;2023-02-11T11:19:21;99431.44;;;6.41;60.05
71938;BME280;59810;48.800;9.086;2023-02-11T11:21:49;99428.53;;;6.50;59.71
71938;BME280;59810;48.800;9.086;2023-02-11T11:24:17;99420.66;;;6.49;60.16
71938;BME280;59810;48.800;9.086;2023-02-11T11:26:46;99430.97;;;6.60;61.11
71938;BME280;59810;48.800;9.086;2023-02-11T11:29:16;99432.47;;;6.63;60.88
71938;BME280;59810;48.800;9.086;2023-02-11T11:34:21;99436.47;;;6.81;59.83
71938;BME280;59810;48.800;9.086;2023-02-11T11:36:48;99442.75;;;6.97;59.53
71938;BME280;59810;48.800;9.086;2023-02-11T11:39:21;99440.63;;;7.07;58.83
71938;BME280;59810;48.800;9.086;2023-02-11T11:41:53;99437.50;;;7.18;58.75
71938;BME280;59810;48.800;9.086;2023-02-11T11:47:32;99424.53;;;7.36;58.66
71938;BME280;59810;48.800;9.086;2023-02-11T11:50:14;99420.00;;;7.52;58.58
71938;BME280;59810;48.800;9.086;2023-02-11T11:52:58;99427.22;;;7.80;56.19
71938;BME280;59810;48.800;9.086;2023-02-11T11:55:44;99420.69;;;7.90;56.18
71938;BME280;59810;48.800;9.086;2023-02-11T11:58:17;99422.81;;;7.79;56.89
71938;BME280;59810;48.800;9.086;2023-02-11T12:00:46;99428.56;;;7.91;56.07
71938;BME280;59810;48.800;9.086;2023-02-11T12:03:36;99422.00;;;7.79;56.43
71938;BME280;59810;48.800;9.086;2023-02-11T12:19:50;99416.47;;;7.80;57.89
71938;BME280;59810;48.800;9.086;2023-02-11T12:25:24;99422.88;;;8.01;57.77
71938;BME280;59810;48.800;9.086;2023-02-11T12:30:46;99422.34;;;8.27;56.87
71938;BME280;59810;48.800;9.086;2023-02-11T12:33:30;99421.78;;;8.31;56.34
71938;BME280;59810;48.800;9.086;2023-02-11T12:44:37;99433.94;;;8.27;56.35
71938;BME280;59810;48.800;9.086;2023-02-11T12:55:26;99430.44;;;8.12;57.23
71938;BME280;59810;48.800;9.086;2023-02-11T12:57:55;99423.78;;;8.08;57.25
71938;BME280;59810;48.800;9.086;2023-02-11T13:00:25;99424.56;;;8.02;57.87
71938;BME280;59810;48.800;9.086;2023-02-11T13:03:09;99421.75;;;8.10;57.89
71938;BME280;59810;48.800;9.086;2023-02-11T13:05:45;99420.28;;;8.07;57.98
71938;BME280;59810;48.800;9.086;2023-02-11T13:10:45;99398.78;;;8.29;58.05
71938;BME280;59810;48.800;9.086;2023-02-11T13:13:21;99391.59;;;8.51;57.77
71938;BME280;59810;48.800;9.086;2023-02-11T13:16:02;99390.13;;;8.76;58.03
71938;BME280;59810;48.800;9.086;2023-02-11T13:23:42;99384.94;;;9.02;59.06
71938;BME280;59810;48.800;9.086;2023-02-11T13:26:24;99392.69;;;8.84;59.95
71938;BME280;59810;48.800;9.086;2023-02-11T13:29:31;99394.28;;;9.07;58.77
71938;BME280;59810;48.800;9.086;2023-02-11T13:32:11;99391.50;;;8.93;59.51
71938;BME280;59810;48.800;9.086;2023-02-11T13:37:12;99381.41;;;8.74;59.78
71938;BME280;59810;48.800;9.086;2023-02-11T13:42:25;99382.63;;;8.71;59.49
71938;BME280;59810;48.800;9.086;2023-02-11T13:44:51;99387.81;;;8.73;59.56
71938;BME280;59810;48.800;9.086;2023-02-11T13:49:55;99392.97;;;8.68;59.62
71938;BME280;59810;48.800;9.086;2023-02-11T13:52:30;99380.56;;;8.73;59.73
71938;BME280;59810;48.800;9.086;2023-02-11T13:55:23;99385.00;;;8.81;59.48
71938;BME280;59810;48.800;9.086;2023-02-11T14:14:30;99379.25;;;9.19;56.94
71938;BME280;59810;48.800;9.086;2023-02-11T14:22:47;99373.53;;;9.00;57.21
71938;BME280;59810;48.800;9.086;2023-02-11T14:32:51;99371.78;;;8.86;56.74
71938;BME280;59810;48.800;9.086;2023-02-11T14:35:43;99377.59;;;8.90;56.58
71938;BME280;59810;48.800;9.086;2023-02-11T14:38:39;99383.91;;;9.03;55.61
71938;BME280;59810;48.800;9.086;2023-02-11T14:41:29;99380.53;;;8.95;55.84
71938;BME280;59810;48.800;9.086;2023-02-11T14:44:03;99382.44;;;9.01;55.66
71938;BME280;59810;48.800;9.086;2023-02-11T14:46:31;99375.69;;;8.84;55.83
71938;BME280;59810;48.800;9.086;2023-02-11T14:49:00;99382.41;;;8.94;56.06
71938;BME280;59810;48.800;9.086;2023-02-11T14:51:35;99395.00;;;9.15;54.81
71938;BME280;59810;48.800;9.086;2023-02-11T14:54:19;99391.34;;;9.01;54.33
71938;BME280;59810;48.800;9.086;2023-02-11T14:57:10;99398.91;;;8.85;55.42
71938;BME280;59810;48.800;9.086;2023-02-11T14:59:36;99393.09;;;8.81;55.39
71938;BME280;59810;48.800;9.086;2023-02-11T15:02:01;99407.88;;;8.70;56.79
71938;BME280;59810;48.800;9.086;2023-02-11T15:04:30;99406.69;;;8.52;57.97
71938;BME280;59810;48.800;9.086;2023-02-11T15:06:58;99412.03;;;8.30;58.94
71938;BME280;59810;48.800;9.086;2023-02-11T15:12:02;99414.88;;;7.86;60.34
71938;BME280;59810;48.800;9.086;2023-02-11T15:14:32;99411.06;;;7.80;60.44
71938;BME280;59810;48.800;9.086;2023-02-11T15:17:01;99400.25;;;7.59;61.64
71938;BME280;59810;48.800;9.086;2023-02-11T15:19:30;99412.41;;;7.55;62.11
71938;BME280;59810;48.800;9.086;2023-02-11T15:21:57;99420.66;;;7.54;62.26
71938;BME280;59810;48.800;9.086;2023-02-11T15:26:58;99417.19;;;7.45;62.83
71938;BME280;59810;48.800;9.086;2023-02-11T15:29:37;99416.28;;;7.38;62.83
71938;BME280;59810;48.800;9.086;2023-02-11T15:34:36;99426.03;;;7.24;63.74
71938;BME280;59810;48.800;9.086;2023-02-11T15:37:04;99423.16;;;7.26;63.58
71938;BME280;59810;48.800;9.086;2023-02-11T15:39:37;99425.94;;;7.17;63.98
71938;BME280;59810;48.800;9.086;2023-02-11T15:44:46;99434.22;;;6.93;65.13
71938;BME280;59810;48.800;9.086;2023-02-11T15:47:18;99440.13;;;6.89;65.24
71938;BME280;59810;48.800;9.086;2023-02-11T15:49:44;99439.16;;;6.81;65.63
71938;BME280;59810;48.800;9.086;2023-02-11T15:52:12;99442.56;;;6.75;65.97
71938;BME280;59810;48.800;9.086;2023-02-11T15:54:39;99435.53;;;6.74;65.84
71938;BME280;59810;48.800;9.086;2023-02-11T15:57:12;99439.59;;;6.70;65.99
71938;BME280;59810;48.800;9.086;2023-02-11T15:59:39;99442.28;;;6.70;66.06
71938;BME280;59810;48.800;9.086;2023-02-11T16:04:54;99438.84;;;6.62;65.92